sensor_id;sensor_type;location;lat;lon;timestamp;P1;durP1;ratioP1;P2;durP2;ratioP2
19374;SDS011;9823;50.936;4.046;2023-05-10T00:01:15;14.27;;;8.50;;
19374;SDS011;9823;50.936;4.046;2023-05-10T00:03:43;20.07;;;8.27;;
19374;SDS011;9823;50.936;4.046;2023-05-10T00:06:09;19.20;;;8.87;;
19374;SDS011;9823;50.936;4.046;2023-05-10T00:08:35;17.50;;;8.30;;
19374;SDS011;9823;50.936;4.046;2023-05-10T00:11:01;18.93;;;9.00;;
19374;SDS011;9823;50.936;4.046;2023-05-10T00:13:27;18.30;;;8.97;;
19374;SDS011;9823;50.936;4.046;2023-05-10T00:15:53;21.00;;;9.53;;
19374;SDS011;9823;50.936;4.046;2023-05-10T00:18:22;18.63;;;9.50;;
19374;SDS011;9823;50.936;4.046;2023-05-10T00:20:48;18.83;;;9.07;;
19374;SDS011;9823;50.936;4.046;2023-05-10T00:23:16;20.87;;;9.80;;
19374;SDS011;9823;50.936;4.046;2023-05-10T00:25:42;19.50;;;8.77;;
19374;SDS011;9823;50.936;4.046;2023-05-10T00:28:18;28.43;;;9.30;;
19374;SDS011;9823;50.936;4.046;2023-05-10T00:30:46;21.37;;;9.77;;
19374;SDS011;9823;50.936;4.046;2023-05-10T00:33:12;18.33;;;9.60;;
19374;SDS011;9823;50.936;4.046;2023-05-10T00:35:39;23.30;;;10.23;;
19374;SDS011;9823;50.936;4.046;2023-05-10T00:38:05;17.97;;;9.30;;
19374;SDS011;9823;50.936;4.046;2023-05-10T00:40:35;19.80;;;9.90;;
19374;SDS011;9823;50.936;4.046;2023-05-10T00:43:01;17.87;;;9.63;;
19374;SDS011;9823;50.936;4.046;2023-05-10T00:45:28;26.10;;;10.57;;
19374;SDS011;9823;50.936;4.046;2023-05-10T00:48:01;19.83;;;9.57;;
19374;SDS011;9823;50.936;4.046;2023-05-10T00:50:31;22.03;;;10.27;;
19374;SDS011;9823;50.936;4.046;2023-05-10T00:52:58;20.23;;;9.50;;
19374;SDS011;9823;50.936;4.046;2023-05-10T00:55:25;21.77;;;10.67;;
19374;SDS011;9823;50.936;4.046;2023-05-10T00:57:58;23.17;;;11.30;;
19374;SDS011;9823;50.936;4.046;2023-05-10T01:00:24;24.90;;;11.97;;
19374;SDS011;9823;50.936;4.046;2023-05-10T01:02:54;22.33;;;11.70;;
19374;SDS011;9823;50.936;4.046;2023-05-10T01:05:23;18.63;;;11.13;;
19374;SDS011;9823;50.936;4.046;2023-05-10T01:07:49;23.37;;;11.80;;
19374;SDS011;9823;50.936;4.046;2023-05-10T01:10:17;26.57;;;12.93;;
19374;SDS011;9823;50.936;4.046;2023-05-10T01:12:46;22.43;;;11.43;;
19374;SDS011;9823;50.936;4.046;2023-05-10T01:15:13;25.73;;;12.87;;
19374;SDS011;9823;50.936;4.046;2023-05-10T01:17:42;24.20;;;13.13;;
19374;SDS011;9823;50.936;4.046;2023-05-10T01:20:10;26.13;;;12.87;;
19374;SDS011;9823;50.936;4.046;2023-05-10T01:33:00;24.33;;;14.00;;
19374;SDS011;9823;50.936;4.046;2023-05-10T01:40:35;24.70;;;14.23;;
19374;SDS011;9823;50.936;4.046;2023-05-10T01:43:03;26.00;;;13.67;;
19374;SDS011;9823;50.936;4.046;2023-05-10T01:45:36;30.77;;;15.23;;
19374;SDS011;9823;50.936;4.046;2023-05-10T01:48:08;29.03;;;15.23;;
19374;SDS011;9823;50.936;4.046;2023-05-10T01:50:36;31.63;;;15.33;;
19374;SDS011;9823;50.936;4.046;2023-05-10T01:53:08;28.87;;;15.33;;
19374;SDS011;9823;50.936;4.046;2023-05-10T01:55:39;29.23;;;14.97;;
19374;SDS011;9823;50.936;4.046;2023-05-10T01:58:07;33.43;;;16.03;;
19374;SDS011;9823;50.936;4.046;2023-05-10T02:00:37;33.37;;;16.07;;
19374;SDS011;9823;50.936;4.046;2023-05-10T02:03:06;30.83;;;16.03;;
19374;SDS011;9823;50.936;4.046;2023-05-10T02:05:33;27.13;;;15.03;;
19374;SDS011;9823;50.936;4.046;2023-05-10T02:08:03;32.37;;;15.77;;
19374;SDS011;9823;50.936;4.046;2023-05-10T02:10:32;29.03;;;15.83;;
19374;SDS011;9823;50.936;4.046;2023-05-10T02:12:58;27.73;;;15.53;;
19374;SDS011;9823;50.936;4.046;2023-05-10T02:15:25;30.23;;;15.53;;
19374;SDS011;9823;50.936;4.046;2023-05-10T02:17:52;33.17;;;15.40;;
19374;SDS011;9823;50.936;4.046;2023-05-10T02:20:22;33.50;;;16.10;;
19374;SDS011;9823;50.936;4.046;2023-05-10T02:22:50;28.17;;;15.20;;
19374;SDS011;9823;50.936;4.046;2023-05-10T02:25:19;30.13;;;15.23;;
19374;SDS011;9823;50.936;4.046;2023-05-10T02:27:47;33.33;;;15.27;;
19374;SDS011;9823;50.936;4.046;2023-05-10T02:30:16;28.10;;;15.37;;
19374;SDS011;9823;50.936;4.046;2023-05-10T02:32:42;28.10;;;15.00;;
19374;SDS011;9823;50.936;4.046;2023-05-10T02:35:11;28.10;;;15.13;;
19374;SDS011;9823;50.936;4.046;2023-05-10T02:37:42;26.53;;;14.50;;
19374;SDS011;9823;50.936;4.046;2023-05-10T02:40:09;27.83;;;14.83;;
19374;SDS011;9823;50.936;4.046;2023-05-10T02:42:36;30.37;;;15.57;;
19374;SDS011;9823;50.936;4.046;2023-05-10T02:45:07;27.83;;;14.10;;
19374;SDS011;9823;50.936;4.046;2023-05-10T02:47:36;30.50;;;16.67;;
19374;SDS011;9823;50.936;4.046;2023-05-10T02:50:02;29.63;;;15.90;;
19374;SDS011;9823;50.936;4.046;2023-05-10T02:52:29;30.97;;;16.17;;
19374;SDS011;9823;50.936;4.046;2023-05-10T02:54:58;26.87;;;15.50;;
19374;SDS011;9823;50.936;4.046;2023-05-10T02:57:28;31.10;;;16.17;;
19374;SDS011;9823;50.936;4.046;2023-05-10T02:59:55;30.80;;;15.47;;
19374;SDS011;9823;50.936;4.046;2023-05-10T03:02:21;26.37;;;15.37;;
19374;SDS011;9823;50.936;4.046;2023-05-10T03:04:47;30.83;;;15.37;;
19374;SDS011;9823;50.936;4.046;2023-05-10T03:07:13;29.63;;;15.23;;
19374;SDS011;9823;50.936;4.046;2023-05-10T03:09:39;28.83;;;14.43;;
19374;SDS011;9823;50.936;4.046;2023-05-10T03:12:14;29.00;;;15.30;;
19374;SDS011;9823;50.936;4.046;2023-05-10T03:17:40;28.13;;;15.67;;
19374;SDS011;9823;50.936;4.046;2023-05-10T03:20:08;29.70;;;15.73;;
19374;SDS011;9823;50.936;4.046;2023-05-10T03:22:40;27.67;;;14.83;;
19374;SDS011;9823;50.936;4.046;2023-05-10T03:25:08;29.53;;;14.93;;
19374;SDS011;9823;50.936;4.046;2023-05-10T03:27:36;29.23;;;15.07;;
19374;SDS011;9823;50.936;4.046;2023-05-10T03:30:10;30.60;;;15.47;;
19374;SDS011;9823;50.936;4.046;2023-05-10T03:32:37;27.27;;;15.03;;
19374;SDS011;9823;50.936;4.046;2023-05-10T03:35:09;28.50;;;15.40;;
19374;SDS011;9823;50.936;4.046;2023-05-10T03:37:35;29.97;;;15.13;;
19374;SDS011;9823;50.936;4.046;2023-05-10T03:40:03;32.67;;;15.93;;
19374;SDS011;9823;50.936;4.046;2023-05-10T03:42:30;31.17;;;16.37;;
19374;SDS011;9823;50.936;4.046;2023-05-10T03:44:56;32.30;;;16.53;;
19374;SDS011;9823;50.936;4.046;2023-05-10T03:47:22;34.83;;;16.90;;
19374;SDS011;9823;50.936;4.046;2023-05-10T03:49:48;33.50;;;16.97;;
19374;SDS011;9823;50.936;4.046;2023-05-10T03:52:14;31.50;;;16.50;;
19374;SDS011;9823;50.936;4.046;2023-05-10T03:54:40;34.93;;;17.37;;
19374;SDS011;9823;50.936;4.046;2023-05-10T03:57:06;29.83;;;16.23;;
19374;SDS011;9823;50.936;4.046;2023-05-10T03:59:34;35.70;;;17.77;;
19374;SDS011;9823;50.936;4.046;2023-05-10T04:02:00;30.43;;;17.10;;
19374;SDS011;9823;50.936;4.046;2023-05-10T04:04:26;33.53;;;17.93;;
19374;SDS011;9823;50.936;4.046;2023-05-10T04:06:57;32.00;;;16.60;;
19374;SDS011;9823;50.936;4.046;2023-05-10T04:09:23;35.10;;;18.73;;
19374;SDS011;9823;50.936;4.046;2023-05-10T04:11:52;34.33;;;19.03;;
19374;SDS011;9823;50.936;4.046;2023-05-10T04:14:20;35.43;;;19.47;;
19374;SDS011;9823;50.936;4.046;2023-05-10T04:16:46;33.03;;;18.83;;
19374;SDS011;9823;50.936;4.046;2023-05-10T04:19:12;40.43;;;19.93;;
19374;SDS011;9823;50.936;4.046;2023-05-10T04:21:38;35.53;;;19.87;;
19374;SDS011;9823;50.936;4.046;2023-05-10T04:24:04;38.80;;;19.60;;
19374;SDS011;9823;50.936;4.046;2023-05-10T04:26:30;40.00;;;20.27;;
19374;SDS011;9823;50.936;4.046;2023-05-10T04:28:56;36.10;;;18.93;;
19374;SDS011;9823;50.936;4.046;2023-05-10T04:31:22;39.17;;;18.77;;
19374;SDS011;9823;50.936;4.046;2023-05-10T04:33:48;35.73;;;18.47;;
19374;SDS011;9823;50.936;4.046;2023-05-10T04:36:15;36.53;;;19.83;;
19374;SDS011;9823;50.936;4.046;2023-05-10T04:38:41;35.60;;;19.20;;
19374;SDS011;9823;50.936;4.046;2023-05-10T04:41:08;33.43;;;18.07;;
19374;SDS011;9823;50.936;4.046;2023-05-10T04:43:34;32.77;;;18.03;;
19374;SDS011;9823;50.936;4.046;2023-05-10T04:46:03;34.37;;;18.37;;
19374;SDS011;9823;50.936;4.046;2023-05-10T04:48:29;36.03;;;17.60;;
19374;SDS011;9823;50.936;4.046;2023-05-10T04:50:58;36.27;;;18.33;;
19374;SDS011;9823;50.936;4.046;2023-05-10T04:53:24;40.67;;;18.27;;
19374;SDS011;9823;50.936;4.046;2023-05-10T04:55:50;36.23;;;18.63;;
19374;SDS011;9823;50.936;4.046;2023-05-10T04:58:16;33.97;;;17.63;;
19374;SDS011;9823;50.936;4.046;2023-05-10T05:00:49;34.13;;;18.87;;
19374;SDS011;9823;50.936;4.046;2023-05-10T05:03:15;35.87;;;18.30;;
19374;SDS011;9823;50.936;4.046;2023-05-10T05:05:44;34.30;;;18.07;;
19374;SDS011;9823;50.936;4.046;2023-05-10T05:08:10;39.70;;;19.03;;
19374;SDS011;9823;50.936;4.046;2023-05-10T05:10:36;39.27;;;19.50;;
19374;SDS011;9823;50.936;4.046;2023-05-10T05:13:02;39.40;;;19.07;;
19374;SDS011;9823;50.936;4.046;2023-05-10T05:15:28;37.10;;;19.37;;
19374;SDS011;9823;50.936;4.046;2023-05-10T05:17:55;33.27;;;18.20;;
19374;SDS011;9823;50.936;4.046;2023-05-10T05:20:21;32.10;;;18.37;;
19374;SDS011;9823;50.936;4.046;2023-05-10T05:22:47;37.00;;;19.43;;
19374;SDS011;9823;50.936;4.046;2023-05-10T05:25:14;40.33;;;20.97;;
19374;SDS011;9823;50.936;4.046;2023-05-10T05:27:40;49.40;;;20.00;;
19374;SDS011;9823;50.936;4.046;2023-05-10T05:30:06;40.97;;;20.03;;
19374;SDS011;9823;50.936;4.046;2023-05-10T05:32:35;38.10;;;19.43;;
19374;SDS011;9823;50.936;4.046;2023-05-10T05:35:01;44.47;;;20.87;;
19374;SDS011;9823;50.936;4.046;2023-05-10T05:37:27;38.87;;;20.67;;
19374;SDS011;9823;50.936;4.046;2023-05-10T05:39:53;42.90;;;21.00;;
19374;SDS011;9823;50.936;4.046;2023-05-10T05:42:23;36.13;;;19.90;;
19374;SDS011;9823;50.936;4.046;2023-05-10T05:44:52;43.37;;;21.07;;
19374;SDS011;9823;50.936;4.046;2023-05-10T05:47:18;44.63;;;21.57;;
19374;SDS011;9823;50.936;4.046;2023-05-10T05:49:44;45.30;;;21.17;;
19374;SDS011;9823;50.936;4.046;2023-05-10T05:52:10;41.90;;;19.97;;
19374;SDS011;9823;50.936;4.046;2023-05-10T05:54:39;44.47;;;21.43;;
19374;SDS011;9823;50.936;4.046;2023-05-10T05:57:07;42.50;;;19.67;;
19374;SDS011;9823;50.936;4.046;2023-05-10T05:59:34;42.03;;;20.57;;
19374;SDS011;9823;50.936;4.046;2023-05-10T06:02:00;44.07;;;20.50;;
19374;SDS011;9823;50.936;4.046;2023-05-10T06:04:26;46.47;;;19.80;;
19374;SDS011;9823;50.936;4.046;2023-05-10T06:06:56;43.47;;;19.97;;
19374;SDS011;9823;50.936;4.046;2023-05-10T06:09:27;40.07;;;20.23;;
19374;SDS011;9823;50.936;4.046;2023-05-10T06:11:53;43.13;;;20.20;;
19374;SDS011;9823;50.936;4.046;2023-05-10T06:14:23;46.07;;;21.60;;
19374;SDS011;9823;50.936;4.046;2023-05-10T06:16:51;39.10;;;20.07;;
19374;SDS011;9823;50.936;4.046;2023-05-10T06:19:17;44.80;;;21.37;;
19374;SDS011;9823;50.936;4.046;2023-05-10T06:21:46;45.00;;;22.33;;
19374;SDS011;9823;50.936;4.046;2023-05-10T06:24:12;46.97;;;22.10;;
19374;SDS011;9823;50.936;4.046;2023-05-10T06:26:46;42.70;;;21.03;;
19374;SDS011;9823;50.936;4.046;2023-05-10T06:29:14;48.83;;;21.03;;
19374;SDS011;9823;50.936;4.046;2023-05-10T06:31:40;48.83;;;21.90;;
19374;SDS011;9823;50.936;4.046;2023-05-10T06:34:06;46.27;;;20.53;;
19374;SDS011;9823;50.936;4.046;2023-05-10T06:36:36;45.63;;;20.90;;
19374;SDS011;9823;50.936;4.046;2023-05-10T06:39:02;44.57;;;21.83;;
19374;SDS011;9823;50.936;4.046;2023-05-10T06:41:28;46.77;;;20.97;;
19374;SDS011;9823;50.936;4.046;2023-05-10T06:43:54;50.40;;;22.20;;
19374;SDS011;9823;50.936;4.046;2023-05-10T06:46:20;50.33;;;21.00;;
19374;SDS011;9823;50.936;4.046;2023-05-10T06:48:46;43.07;;;19.97;;
19374;SDS011;9823;50.936;4.046;2023-05-10T06:51:12;37.77;;;19.23;;
19374;SDS011;9823;50.936;4.046;2023-05-10T06:53:38;42.23;;;19.07;;
19374;SDS011;9823;50.936;4.046;2023-05-10T06:56:04;47.07;;;18.23;;
19374;SDS011;9823;50.936;4.046;2023-05-10T06:58:31;38.67;;;18.10;;
19374;SDS011;9823;50.936;4.046;2023-05-10T07:01:04;58.03;;;18.73;;
19374;SDS011;9823;50.936;4.046;2023-05-10T07:03:41;35.70;;;16.80;;
19374;SDS011;9823;50.936;4.046;2023-05-10T07:06:07;44.90;;;18.27;;
19374;SDS011;9823;50.936;4.046;2023-05-10T07:08:37;48.17;;;18.80;;
19374;SDS011;9823;50.936;4.046;2023-05-10T07:11:04;49.23;;;19.23;;
19374;SDS011;9823;50.936;4.046;2023-05-10T07:13:34;45.17;;;19.57;;
19374;SDS011;9823;50.936;4.046;2023-05-10T07:16:01;37.40;;;17.40;;
19374;SDS011;9823;50.936;4.046;2023-05-10T07:18:27;36.27;;;18.20;;
19374;SDS011;9823;50.936;4.046;2023-05-10T07:20:54;44.53;;;18.10;;
19374;SDS011;9823;50.936;4.046;2023-05-10T07:23:20;43.93;;;17.93;;
19374;SDS011;9823;50.936;4.046;2023-05-10T07:25:49;38.90;;;18.73;;
19374;SDS011;9823;50.936;4.046;2023-05-10T07:28:19;41.83;;;18.00;;
19374;SDS011;9823;50.936;4.046;2023-05-10T07:30:45;49.43;;;19.43;;
19374;SDS011;9823;50.936;4.046;2023-05-10T07:33:12;42.63;;;16.97;;
19374;SDS011;9823;50.936;4.046;2023-05-10T07:35:41;47.27;;;18.03;;
19374;SDS011;9823;50.936;4.046;2023-05-10T07:38:07;38.50;;;17.63;;
19374;SDS011;9823;50.936;4.046;2023-05-10T07:40:33;41.30;;;17.37;;
19374;SDS011;9823;50.936;4.046;2023-05-10T07:42:59;35.47;;;17.00;;
19374;SDS011;9823;50.936;4.046;2023-05-10T07:45:26;38.23;;;16.60;;
19374;SDS011;9823;50.936;4.046;2023-05-10T07:47:55;31.00;;;15.67;;
19374;SDS011;9823;50.936;4.046;2023-05-10T07:50:21;35.40;;;16.00;;
19374;SDS011;9823;50.936;4.046;2023-05-10T07:52:50;39.60;;;16.33;;
19374;SDS011;9823;50.936;4.046;2023-05-10T07:55:16;34.60;;;15.73;;
19374;SDS011;9823;50.936;4.046;2023-05-10T07:57:43;35.60;;;15.03;;
19374;SDS011;9823;50.936;4.046;2023-05-10T08:00:12;36.00;;;16.10;;
19374;SDS011;9823;50.936;4.046;2023-05-10T08:02:38;37.50;;;14.83;;
19374;SDS011;9823;50.936;4.046;2023-05-10T08:05:05;39.00;;;15.10;;
19374;SDS011;9823;50.936;4.046;2023-05-10T08:07:33;29.73;;;14.83;;
19374;SDS011;9823;50.936;4.046;2023-05-10T08:09:59;31.23;;;14.10;;
19374;SDS011;9823;50.936;4.046;2023-05-10T08:12:25;33.23;;;14.30;;
19374;SDS011;9823;50.936;4.046;2023-05-10T08:14:54;22.80;;;11.93;;
19374;SDS011;9823;50.936;4.046;2023-05-10T08:17:20;35.43;;;14.07;;
19374;SDS011;9823;50.936;4.046;2023-05-10T08:19:46;29.57;;;13.40;;
19374;SDS011;9823;50.936;4.046;2023-05-10T08:22:12;28.07;;;12.37;;
19374;SDS011;9823;50.936;4.046;2023-05-10T08:24:38;26.93;;;12.73;;
19374;SDS011;9823;50.936;4.046;2023-05-10T08:27:05;24.03;;;12.13;;
19374;SDS011;9823;50.936;4.046;2023-05-10T08:29:31;28.30;;;11.23;;
19374;SDS011;9823;50.936;4.046;2023-05-10T08:31:57;32.07;;;11.03;;
19374;SDS011;9823;50.936;4.046;2023-05-10T08:34:23;24.67;;;11.57;;
19374;SDS011;9823;50.936;4.046;2023-05-10T08:36:50;28.83;;;11.13;;
19374;SDS011;9823;50.936;4.046;2023-05-10T08:39:16;22.40;;;10.93;;
19374;SDS011;9823;50.936;4.046;2023-05-10T08:41:42;20.07;;;10.33;;
19374;SDS011;9823;50.936;4.046;2023-05-10T08:44:09;30.00;;;10.70;;
19374;SDS011;9823;50.936;4.046;2023-05-10T08:46:36;26.13;;;10.33;;
19374;SDS011;9823;50.936;4.046;2023-05-10T08:49:11;30.53;;;10.67;;
19374;SDS011;9823;50.936;4.046;2023-05-10T08:51:41;21.03;;;10.77;;
19374;SDS011;9823;50.936;4.046;2023-05-10T08:54:14;27.13;;;10.70;;
19374;SDS011;9823;50.936;4.046;2023-05-10T08:56:43;17.80;;;9.90;;
19374;SDS011;9823;50.936;4.046;2023-05-10T08:59:09;26.27;;;9.93;;
19374;SDS011;9823;50.936;4.046;2023-05-10T09:01:35;22.27;;;10.17;;
19374;SDS011;9823;50.936;4.046;2023-05-10T09:04:02;26.00;;;9.97;;
19374;SDS011;9823;50.936;4.046;2023-05-10T09:06:29;24.70;;;10.67;;
19374;SDS011;9823;50.936;4.046;2023-05-10T09:08:55;18.70;;;10.37;;
19374;SDS011;9823;50.936;4.046;2023-05-10T09:11:21;19.07;;;10.63;;
19374;SDS011;9823;50.936;4.046;2023-05-10T09:13:48;22.20;;;10.33;;
19374;SDS011;9823;50.936;4.046;2023-05-10T09:16:17;28.80;;;10.40;;
19374;SDS011;9823;50.936;4.046;2023-05-10T09:18:43;20.13;;;10.10;;
19374;SDS011;9823;50.936;4.046;2023-05-10T09:21:09;29.23;;;10.37;;
19374;SDS011;9823;50.936;4.046;2023-05-10T09:23:36;25.20;;;10.13;;
19374;SDS011;9823;50.936;4.046;2023-05-10T09:26:04;23.83;;;9.43;;
19374;SDS011;9823;50.936;4.046;2023-05-10T09:31:17;20.23;;;9.07;;
19374;SDS011;9823;50.936;4.046;2023-05-10T09:33:44;18.20;;;8.50;;
19374;SDS011;9823;50.936;4.046;2023-05-10T09:36:13;21.37;;;9.33;;
19374;SDS011;9823;50.936;4.046;2023-05-10T09:39:12;19.53;;;9.47;;
19374;SDS011;9823;50.936;4.046;2023-05-10T09:41:31;19.07;;;8.90;;
19374;SDS011;9823;50.936;4.046;2023-05-10T09:43:58;18.43;;;9.60;;
19374;SDS011;9823;50.936;4.046;2023-05-10T09:46:24;15.90;;;8.50;;
19374;SDS011;9823;50.936;4.046;2023-05-10T09:48:51;17.03;;;9.03;;
19374;SDS011;9823;50.936;4.046;2023-05-10T09:51:21;18.93;;;9.37;;
19374;SDS011;9823;50.936;4.046;2023-05-10T09:53:48;14.47;;;8.77;;
19374;SDS011;9823;50.936;4.046;2023-05-10T09:56:34;17.03;;;9.40;;
19374;SDS011;9823;50.936;4.046;2023-05-10T09:59:04;15.47;;;8.40;;
19374;SDS011;9823;50.936;4.046;2023-05-10T10:01:30;16.27;;;9.20;;
19374;SDS011;9823;50.936;4.046;2023-05-10T10:03:56;14.77;;;9.07;;
19374;SDS011;9823;50.936;4.046;2023-05-10T10:06:23;17.87;;;9.03;;
19374;SDS011;9823;50.936;4.046;2023-05-10T10:08:49;15.63;;;9.20;;
19374;SDS011;9823;50.936;4.046;2023-05-10T10:11:16;17.90;;;9.60;;
19374;SDS011;9823;50.936;4.046;2023-05-10T10:13:42;16.70;;;9.20;;
19374;SDS011;9823;50.936;4.046;2023-05-10T10:16:08;18.07;;;9.97;;
19374;SDS011;9823;50.936;4.046;2023-05-10T10:18:38;19.37;;;9.57;;
19374;SDS011;9823;50.936;4.046;2023-05-10T10:21:07;16.77;;;10.03;;
19374;SDS011;9823;50.936;4.046;2023-05-10T10:23:36;25.47;;;10.87;;
19374;SDS011;9823;50.936;4.046;2023-05-10T10:26:26;14.10;;;8.83;;
19374;SDS011;9823;50.936;4.046;2023-05-10T10:32:06;17.33;;;9.47;;
19374;SDS011;9823;50.936;4.046;2023-05-10T10:34:38;15.00;;;9.57;;
19374;SDS011;9823;50.936;4.046;2023-05-10T10:37:06;19.23;;;10.13;;
19374;SDS011;9823;50.936;4.046;2023-05-10T10:39:32;17.80;;;10.40;;
19374;SDS011;9823;50.936;4.046;2023-05-10T10:42:04;17.13;;;9.83;;
19374;SDS011;9823;50.936;4.046;2023-05-10T10:44:43;22.40;;;10.67;;
19374;SDS011;9823;50.936;4.046;2023-05-10T10:50:02;18.97;;;10.30;;
19374;SDS011;9823;50.936;4.046;2023-05-10T10:55:03;17.03;;;10.93;;
19374;SDS011;9823;50.936;4.046;2023-05-10T11:13:14;19.70;;;11.37;;
19374;SDS011;9823;50.936;4.046;2023-05-10T11:15:47;23.73;;;10.47;;
19374;SDS011;9823;50.936;4.046;2023-05-10T11:18:28;15.53;;;10.33;;
19374;SDS011;9823;50.936;4.046;2023-05-10T11:20:58;23.53;;;10.43;;
19374;SDS011;9823;50.936;4.046;2023-05-10T11:25:56;15.47;;;9.67;;
19374;SDS011;9823;50.936;4.046;2023-05-10T11:28:22;17.70;;;9.70;;
19374;SDS011;9823;50.936;4.046;2023-05-10T11:30:48;18.53;;;10.00;;
19374;SDS011;9823;50.936;4.046;2023-05-10T11:33:15;16.03;;;10.40;;
19374;SDS011;9823;50.936;4.046;2023-05-10T11:35:44;15.80;;;10.23;;
19374;SDS011;9823;50.936;4.046;2023-05-10T11:38:11;18.40;;;9.83;;
19374;SDS011;9823;50.936;4.046;2023-05-10T11:40:37;18.47;;;10.17;;
19374;SDS011;9823;50.936;4.046;2023-05-10T11:43:06;17.23;;;10.40;;
19374;SDS011;9823;50.936;4.046;2023-05-10T11:45:34;14.07;;;9.87;;
19374;SDS011;9823;50.936;4.046;2023-05-10T11:48:03;17.53;;;10.57;;
19374;SDS011;9823;50.936;4.046;2023-05-10T11:50:29;14.03;;;9.83;;
19374;SDS011;9823;50.936;4.046;2023-05-10T11:52:56;17.73;;;10.47;;
19374;SDS011;9823;50.936;4.046;2023-05-10T11:55:23;16.00;;;10.10;;
19374;SDS011;9823;50.936;4.046;2023-05-10T11:57:53;18.40;;;11.23;;
19374;SDS011;9823;50.936;4.046;2023-05-10T12:00:19;18.27;;;10.23;;
19374;SDS011;9823;50.936;4.046;2023-05-10T12:02:48;18.93;;;10.60;;
19374;SDS011;9823;50.936;4.046;2023-05-10T12:05:17;19.23;;;10.63;;
19374;SDS011;9823;50.936;4.046;2023-05-10T12:07:43;24.97;;;11.30;;
19374;SDS011;9823;50.936;4.046;2023-05-10T12:10:12;18.97;;;11.00;;
19374;SDS011;9823;50.936;4.046;2023-05-10T12:12:51;17.43;;;10.47;;
19374;SDS011;9823;50.936;4.046;2023-05-10T12:17:44;17.10;;;10.77;;
19374;SDS011;9823;50.936;4.046;2023-05-10T12:20:21;16.70;;;10.03;;
19374;SDS011;9823;50.936;4.046;2023-05-10T12:22:51;18.77;;;10.80;;
19374;SDS011;9823;50.936;4.046;2023-05-10T12:25:20;18.30;;;10.80;;
19374;SDS011;9823;50.936;4.046;2023-05-10T12:27:56;19.33;;;11.33;;
19374;SDS011;9823;50.936;4.046;2023-05-10T12:30:23;19.30;;;11.57;;
19374;SDS011;9823;50.936;4.046;2023-05-10T12:32:49;16.97;;;11.27;;
19374;SDS011;9823;50.936;4.046;2023-05-10T12:35:18;21.77;;;11.83;;
19374;SDS011;9823;50.936;4.046;2023-05-10T12:37:51;18.03;;;10.47;;
19374;SDS011;9823;50.936;4.046;2023-05-10T12:40:17;18.93;;;11.27;;
19374;SDS011;9823;50.936;4.046;2023-05-10T12:42:48;20.00;;;12.17;;
19374;SDS011;9823;50.936;4.046;2023-05-10T12:45:14;20.13;;;12.40;;
19374;SDS011;9823;50.936;4.046;2023-05-10T12:47:40;22.73;;;12.17;;
19374;SDS011;9823;50.936;4.046;2023-05-10T12:50:08;19.93;;;11.70;;
19374;SDS011;9823;50.936;4.046;2023-05-10T12:52:34;19.60;;;11.90;;
19374;SDS011;9823;50.936;4.046;2023-05-10T12:55:00;17.53;;;11.87;;
19374;SDS011;9823;50.936;4.046;2023-05-10T12:57:28;20.63;;;12.60;;
19374;SDS011;9823;50.936;4.046;2023-05-10T12:59:54;17.13;;;11.33;;
19374;SDS011;9823;50.936;4.046;2023-05-10T13:02:22;19.43;;;12.10;;
19374;SDS011;9823;50.936;4.046;2023-05-10T13:04:49;18.97;;;12.13;;
19374;SDS011;9823;50.936;4.046;2023-05-10T13:07:15;19.60;;;13.10;;
19374;SDS011;9823;50.936;4.046;2023-05-10T13:09:41;19.03;;;12.17;;
19374;SDS011;9823;50.936;4.046;2023-05-10T13:12:07;19.23;;;13.13;;
19374;SDS011;9823;50.936;4.046;2023-05-10T13:14:35;22.10;;;13.97;;
19374;SDS011;9823;50.936;4.046;2023-05-10T13:17:01;17.70;;;13.57;;
19374;SDS011;9823;50.936;4.046;2023-05-10T13:19:27;22.47;;;14.10;;
19374;SDS011;9823;50.936;4.046;2023-05-10T13:21:53;21.93;;;14.60;;
19374;SDS011;9823;50.936;4.046;2023-05-10T13:24:19;20.93;;;12.63;;
19374;SDS011;9823;50.936;4.046;2023-05-10T13:26:45;21.53;;;13.53;;
19374;SDS011;9823;50.936;4.046;2023-05-10T13:29:12;22.87;;;13.27;;
19374;SDS011;9823;50.936;4.046;2023-05-10T13:31:42;23.80;;;13.20;;
19374;SDS011;9823;50.936;4.046;2023-05-10T13:34:08;22.33;;;13.17;;
19374;SDS011;9823;50.936;4.046;2023-05-10T13:36:34;20.00;;;12.43;;
19374;SDS011;9823;50.936;4.046;2023-05-10T13:39:03;23.10;;;13.30;;
19374;SDS011;9823;50.936;4.046;2023-05-10T13:41:31;18.63;;;12.67;;
19374;SDS011;9823;50.936;4.046;2023-05-10T13:43:58;23.20;;;12.73;;
19374;SDS011;9823;50.936;4.046;2023-05-10T13:46:26;24.67;;;12.80;;
19374;SDS011;9823;50.936;4.046;2023-05-10T13:48:52;21.20;;;13.53;;
19374;SDS011;9823;50.936;4.046;2023-05-10T13:51:18;21.10;;;12.73;;
19374;SDS011;9823;50.936;4.046;2023-05-10T13:53:44;19.63;;;13.23;;
19374;SDS011;9823;50.936;4.046;2023-05-10T13:56:12;22.43;;;13.50;;
19374;SDS011;9823;50.936;4.046;2023-05-10T13:58:38;18.17;;;12.93;;
19374;SDS011;9823;50.936;4.046;2023-05-10T14:01:04;20.30;;;13.03;;
19374;SDS011;9823;50.936;4.046;2023-05-10T14:03:30;24.57;;;14.80;;
19374;SDS011;9823;50.936;4.046;2023-05-10T14:05:58;24.37;;;14.43;;
19374;SDS011;9823;50.936;4.046;2023-05-10T14:08:25;28.50;;;15.80;;
19374;SDS011;9823;50.936;4.046;2023-05-10T14:10:55;23.27;;;15.00;;
19374;SDS011;9823;50.936;4.046;2023-05-10T14:13:23;31.03;;;17.10;;
19374;SDS011;9823;50.936;4.046;2023-05-10T14:15:49;36.07;;;16.63;;
19374;SDS011;9823;50.936;4.046;2023-05-10T14:18:15;34.53;;;16.57;;
19374;SDS011;9823;50.936;4.046;2023-05-10T14:20:41;31.13;;;15.47;;
19374;SDS011;9823;50.936;4.046;2023-05-10T14:23:07;21.33;;;13.07;;
19374;SDS011;9823;50.936;4.046;2023-05-10T14:25:40;25.40;;;12.70;;
19374;SDS011;9823;50.936;4.046;2023-05-10T14:28:06;20.20;;;9.87;;
19374;SDS011;9823;50.936;4.046;2023-05-10T14:30:32;18.47;;;9.63;;
19374;SDS011;9823;50.936;4.046;2023-05-10T14:33:01;23.60;;;10.07;;
19374;SDS011;9823;50.936;4.046;2023-05-10T14:35:30;17.13;;;8.80;;
19374;SDS011;9823;50.936;4.046;2023-05-10T14:37:56;16.70;;;8.30;;
19374;SDS011;9823;50.936;4.046;2023-05-10T14:40:23;12.50;;;7.50;;
19374;SDS011;9823;50.936;4.046;2023-05-10T14:42:51;17.40;;;8.47;;
19374;SDS011;9823;50.936;4.046;2023-05-10T14:45:18;17.13;;;9.10;;
19374;SDS011;9823;50.936;4.046;2023-05-10T14:47:44;18.33;;;8.73;;
19374;SDS011;9823;50.936;4.046;2023-05-10T14:50:10;21.53;;;8.17;;
19374;SDS011;9823;50.936;4.046;2023-05-10T14:52:38;14.20;;;7.90;;
19374;SDS011;9823;50.936;4.046;2023-05-10T14:55:05;16.33;;;8.07;;
19374;SDS011;9823;50.936;4.046;2023-05-10T14:57:31;14.93;;;7.50;;
19374;SDS011;9823;50.936;4.046;2023-05-10T14:59:58;19.50;;;7.67;;
19374;SDS011;9823;50.936;4.046;2023-05-10T15:02:24;13.73;;;7.30;;
19374;SDS011;9823;50.936;4.046;2023-05-10T15:04:50;20.67;;;8.50;;
19374;SDS011;9823;50.936;4.046;2023-05-10T15:07:16;18.53;;;8.17;;
19374;SDS011;9823;50.936;4.046;2023-05-10T15:09:43;15.20;;;7.57;;
19374;SDS011;9823;50.936;4.046;2023-05-10T15:12:12;15.87;;;8.20;;
19374;SDS011;9823;50.936;4.046;2023-05-10T15:14:38;21.13;;;7.73;;
19374;SDS011;9823;50.936;4.046;2023-05-10T15:17:05;14.97;;;7.50;;
19374;SDS011;9823;50.936;4.046;2023-05-10T15:19:34;16.10;;;7.53;;
19374;SDS011;9823;50.936;4.046;2023-05-10T15:22:03;17.60;;;7.83;;
19374;SDS011;9823;50.936;4.046;2023-05-10T15:24:30;17.23;;;8.80;;
19374;SDS011;9823;50.936;4.046;2023-05-10T15:26:56;17.60;;;8.37;;
19374;SDS011;9823;50.936;4.046;2023-05-10T15:29:22;22.27;;;9.43;;
19374;SDS011;9823;50.936;4.046;2023-05-10T15:31:48;22.63;;;9.20;;